KOZR/OZR METAR and TAF weather

Enter ICAO airport designator
Station Type Date Time Source
KOZR METAR 2020/07/15 09:26 UTC NOAA

KOZR 150926Z 08003KT 3/8SM R06/2200V2600FT FG OVC001 24/24 A3000 RMK AO2A SLP158 $


Station Type Date Time Source
KOZR Decoded METAR 2020/07/15 09:26 UTC NOAA

Cairns Army Air Field / Ozark, AL, United States (KOZR) 31-17N 085-43W
Jul 15, 2020 - 05:26 AM EDT / 2020.07.15 0926 UTC
Wind: from the E (080 degrees) at 3 MPH (3 KT) (direction variable):0
Visibility: 3/8 mile(s):0
Sky conditions: overcast
Weather: fog
Temperature: 75 F (24 C)
Dew Point: 75 F (24 C)
Relative Humidity: 100%
Pressure (altimeter): 30 in. Hg (1015 hPa)
ob: KOZR 150926Z 08003KT 3/8SM R06/2200V2600FT FG OVC001 24/24 A3000 RMK AO2A SLP158
cycle: 9

Station Type Date Time Source
KOZR TAF 2020/07/15 08:58 UTC NOAA

TAF
AMD KOZR 150849Z 1508/1614 VRB06KT 2000 BR BKN009 QNH2998INS
TEMPO 1508/1513 0400 FG BKN001
BECMG 1512/1513 VRB06KT 9999 NSW SCT040 QNH3004INS
BECMG 1516/1517 20006KT 9999 VCTS SCT030CB QNH3005INS
TEMPO 1517/1522 18015G25KT 8000 -TSRA BKN015CB
BECMG 1522/1523 VRB06KT 9999 NSW FEW140 QNH3003INS
BECMG 1600/1601 VRB06KT 8000 BR SCT015 QNH3005INS
BECMG 1605/1606 VRB06KT 4800 BR BKN006 QNH3002INS
BECMG 1611/1612 VRB06KT 9999 NSW SCT035 QNH2997INS TX32/1520Z TN24/1508Z

Example: see airport list